sensor_id;sensor_type;location;lat;lon;timestamp;P1;durP1;ratioP1;P2;durP2;ratioP2
2480;SDS011;57396;48.742;9.128;2023-11-21T00:00:44;11.63;;;2.60;;
2480;SDS011;57396;48.742;9.128;2023-11-21T00:03:10;3.80;;;2.50;;
2480;SDS011;57396;48.742;9.128;2023-11-21T00:05:36;6.87;;;2.53;;
2480;SDS011;57396;48.742;9.128;2023-11-21T00:08:02;6.73;;;2.67;;
2480;SDS011;57396;48.742;9.128;2023-11-21T00:10:27;4.90;;;2.67;;
2480;SDS011;57396;48.742;9.128;2023-11-21T00:12:53;8.00;;;2.70;;
2480;SDS011;57396;48.742;9.128;2023-11-21T00:15:20;7.27;;;3.17;;
2480;SDS011;57396;48.742;9.128;2023-11-21T00:17:45;10.93;;;4.00;;
2480;SDS011;57396;48.742;9.128;2023-11-21T00:20:11;18.43;;;8.23;;
2480;SDS011;57396;48.742;9.128;2023-11-21T00:22:37;35.10;;;14.60;;
2480;SDS011;57396;48.742;9.128;2023-11-21T00:25:03;11.97;;;5.03;;
2480;SDS011;57396;48.742;9.128;2023-11-21T00:27:29;8.47;;;3.67;;
2480;SDS011;57396;48.742;9.128;2023-11-21T00:29:55;13.20;;;3.47;;
2480;SDS011;57396;48.742;9.128;2023-11-21T00:32:20;7.53;;;3.17;;
2480;SDS011;57396;48.742;9.128;2023-11-21T00:34:46;6.50;;;2.70;;
2480;SDS011;57396;48.742;9.128;2023-11-21T00:37:11;9.80;;;4.33;;
2480;SDS011;57396;48.742;9.128;2023-11-21T00:39:36;7.30;;;2.60;;
2480;SDS011;57396;48.742;9.128;2023-11-21T00:42:02;8.60;;;2.83;;
2480;SDS011;57396;48.742;9.128;2023-11-21T00:44:30;7.90;;;2.10;;
2480;SDS011;57396;48.742;9.128;2023-11-21T00:46:55;10.50;;;2.70;;
2480;SDS011;57396;48.742;9.128;2023-11-21T00:49:20;5.07;;;2.40;;
2480;SDS011;57396;48.742;9.128;2023-11-21T00:51:46;5.17;;;2.33;;
2480;SDS011;57396;48.742;9.128;2023-11-21T00:54:11;5.40;;;2.13;;
2480;SDS011;57396;48.742;9.128;2023-11-21T00:56:37;12.43;;;2.37;;
2480;SDS011;57396;48.742;9.128;2023-11-21T00:59:02;7.53;;;3.90;;
2480;SDS011;57396;48.742;9.128;2023-11-21T01:01:30;5.30;;;2.13;;
2480;SDS011;57396;48.742;9.128;2023-11-21T01:03:55;4.30;;;2.00;;
2480;SDS011;57396;48.742;9.128;2023-11-21T01:06:21;5.23;;;2.00;;
2480;SDS011;57396;48.742;9.128;2023-11-21T01:08:46;5.30;;;2.37;;
2480;SDS011;57396;48.742;9.128;2023-11-21T01:11:12;4.70;;;2.00;;
2480;SDS011;57396;48.742;9.128;2023-11-21T01:13:38;2.43;;;1.60;;
2480;SDS011;57396;48.742;9.128;2023-11-21T01:16:04;2.60;;;2.07;;
2480;SDS011;57396;48.742;9.128;2023-11-21T01:18:31;6.03;;;1.97;;
2480;SDS011;57396;48.742;9.128;2023-11-21T01:20:56;9.67;;;2.10;;
2480;SDS011;57396;48.742;9.128;2023-11-21T01:23:22;3.53;;;2.00;;
2480;SDS011;57396;48.742;9.128;2023-11-21T01:25:48;3.90;;;1.43;;
2480;SDS011;57396;48.742;9.128;2023-11-21T01:28:15;4.37;;;1.30;;
2480;SDS011;57396;48.742;9.128;2023-11-21T01:30:41;2.63;;;1.50;;
2480;SDS011;57396;48.742;9.128;2023-11-21T01:33:06;5.43;;;1.97;;
2480;SDS011;57396;48.742;9.128;2023-11-21T01:35:32;5.53;;;1.60;;
2480;SDS011;57396;48.742;9.128;2023-11-21T01:37:57;2.90;;;1.57;;
2480;SDS011;57396;48.742;9.128;2023-11-21T01:40:22;4.57;;;1.77;;
2480;SDS011;57396;48.742;9.128;2023-11-21T01:42:49;4.50;;;1.90;;
2480;SDS011;57396;48.742;9.128;2023-11-21T01:45:14;6.37;;;1.53;;
2480;SDS011;57396;48.742;9.128;2023-11-21T01:47:40;6.00;;;1.20;;
2480;SDS011;57396;48.742;9.128;2023-11-21T01:50:07;5.53;;;2.03;;
2480;SDS011;57396;48.742;9.128;2023-11-21T01:52:34;3.83;;;1.30;;
2480;SDS011;57396;48.742;9.128;2023-11-21T01:55:00;4.07;;;1.50;;
2480;SDS011;57396;48.742;9.128;2023-11-21T01:57:25;4.60;;;1.70;;
2480;SDS011;57396;48.742;9.128;2023-11-21T01:59:51;4.40;;;1.63;;
2480;SDS011;57396;48.742;9.128;2023-11-21T02:02:19;3.63;;;1.63;;
2480;SDS011;57396;48.742;9.128;2023-11-21T02:04:44;3.67;;;1.53;;
2480;SDS011;57396;48.742;9.128;2023-11-21T02:07:10;3.43;;;1.20;;
2480;SDS011;57396;48.742;9.128;2023-11-21T02:09:35;3.60;;;1.73;;
2480;SDS011;57396;48.742;9.128;2023-11-21T02:12:03;3.90;;;1.47;;
2480;SDS011;57396;48.742;9.128;2023-11-21T02:14:30;2.93;;;1.47;;
2480;SDS011;57396;48.742;9.128;2023-11-21T02:16:55;3.00;;;1.17;;
2480;SDS011;57396;48.742;9.128;2023-11-21T02:19:25;3.07;;;1.13;;
2480;SDS011;57396;48.742;9.128;2023-11-21T02:21:52;3.20;;;1.50;;
2480;SDS011;57396;48.742;9.128;2023-11-21T02:24:21;4.07;;;1.30;;
2480;SDS011;57396;48.742;9.128;2023-11-21T02:26:47;6.73;;;1.23;;
2480;SDS011;57396;48.742;9.128;2023-11-21T02:29:19;3.60;;;1.37;;
2480;SDS011;57396;48.742;9.128;2023-11-21T02:31:51;4.40;;;1.37;;
2480;SDS011;57396;48.742;9.128;2023-11-21T02:34:19;2.43;;;1.30;;
2480;SDS011;57396;48.742;9.128;2023-11-21T02:36:45;2.40;;;1.43;;
2480;SDS011;57396;48.742;9.128;2023-11-21T02:39:10;5.23;;;1.60;;
2480;SDS011;57396;48.742;9.128;2023-11-21T02:41:39;2.50;;;1.40;;
2480;SDS011;57396;48.742;9.128;2023-11-21T02:44:05;2.80;;;1.30;;
2480;SDS011;57396;48.742;9.128;2023-11-21T02:46:31;3.10;;;1.73;;
2480;SDS011;57396;48.742;9.128;2023-11-21T02:48:59;5.10;;;2.03;;
2480;SDS011;57396;48.742;9.128;2023-11-21T02:51:35;5.63;;;1.43;;
2480;SDS011;57396;48.742;9.128;2023-11-21T02:54:01;3.17;;;1.30;;
2480;SDS011;57396;48.742;9.128;2023-11-21T02:56:28;2.37;;;1.20;;
2480;SDS011;57396;48.742;9.128;2023-11-21T02:58:56;3.27;;;1.30;;
2480;SDS011;57396;48.742;9.128;2023-11-21T03:01:22;3.07;;;1.10;;
2480;SDS011;57396;48.742;9.128;2023-11-21T03:03:49;1.80;;;1.10;;
2480;SDS011;57396;48.742;9.128;2023-11-21T03:06:19;3.00;;;1.30;;
2480;SDS011;57396;48.742;9.128;2023-11-21T03:08:45;1.30;;;0.80;;
2480;SDS011;57396;48.742;9.128;2023-11-21T03:11:10;1.87;;;1.10;;
2480;SDS011;57396;48.742;9.128;2023-11-21T03:13:38;3.13;;;1.00;;
2480;SDS011;57396;48.742;9.128;2023-11-21T03:16:04;3.03;;;1.13;;
2480;SDS011;57396;48.742;9.128;2023-11-21T03:18:31;3.27;;;1.23;;
2480;SDS011;57396;48.742;9.128;2023-11-21T03:20:56;2.17;;;1.00;;
2480;SDS011;57396;48.742;9.128;2023-11-21T03:23:22;3.13;;;1.10;;
2480;SDS011;57396;48.742;9.128;2023-11-21T03:25:47;1.53;;;0.83;;
2480;SDS011;57396;48.742;9.128;2023-11-21T03:28:13;1.93;;;1.13;;
2480;SDS011;57396;48.742;9.128;2023-11-21T03:30:38;3.90;;;1.10;;
2480;SDS011;57396;48.742;9.128;2023-11-21T03:33:04;1.70;;;1.00;;
2480;SDS011;57396;48.742;9.128;2023-11-21T03:35:29;2.50;;;1.00;;
2480;SDS011;57396;48.742;9.128;2023-11-21T03:37:54;4.73;;;1.37;;
2480;SDS011;57396;48.742;9.128;2023-11-21T03:40:21;1.87;;;1.10;;
2480;SDS011;57396;48.742;9.128;2023-11-21T03:42:47;1.77;;;1.40;;
2480;SDS011;57396;48.742;9.128;2023-11-21T03:45:12;3.30;;;1.00;;
2480;SDS011;57396;48.742;9.128;2023-11-21T03:47:40;2.03;;;1.00;;
2480;SDS011;57396;48.742;9.128;2023-11-21T03:50:06;2.83;;;1.00;;
2480;SDS011;57396;48.742;9.128;2023-11-21T03:52:33;3.73;;;1.23;;
2480;SDS011;57396;48.742;9.128;2023-11-21T03:54:59;1.80;;;0.90;;
2480;SDS011;57396;48.742;9.128;2023-11-21T03:57:24;2.50;;;0.87;;
2480;SDS011;57396;48.742;9.128;2023-11-21T03:59:50;1.20;;;0.80;;
2480;SDS011;57396;48.742;9.128;2023-11-21T04:02:15;2.10;;;1.10;;
2480;SDS011;57396;48.742;9.128;2023-11-21T04:04:40;4.30;;;1.20;;
2480;SDS011;57396;48.742;9.128;2023-11-21T04:07:06;2.37;;;1.03;;
2480;SDS011;57396;48.742;9.128;2023-11-21T04:09:32;2.07;;;0.90;;
2480;SDS011;57396;48.742;9.128;2023-11-21T04:11:57;4.03;;;0.90;;
2480;SDS011;57396;48.742;9.128;2023-11-21T04:14:23;3.13;;;1.00;;
2480;SDS011;57396;48.742;9.128;2023-11-21T04:16:48;1.97;;;0.80;;
2480;SDS011;57396;48.742;9.128;2023-11-21T04:19:14;3.30;;;0.80;;
2480;SDS011;57396;48.742;9.128;2023-11-21T04:21:40;4.13;;;0.80;;
2480;SDS011;57396;48.742;9.128;2023-11-21T04:24:06;1.90;;;0.90;;
2480;SDS011;57396;48.742;9.128;2023-11-21T04:26:32;3.60;;;0.83;;
2480;SDS011;57396;48.742;9.128;2023-11-21T04:28:57;3.23;;;0.97;;
2480;SDS011;57396;48.742;9.128;2023-11-21T04:31:23;3.17;;;1.10;;
2480;SDS011;57396;48.742;9.128;2023-11-21T04:33:48;3.00;;;1.50;;
2480;SDS011;57396;48.742;9.128;2023-11-21T04:36:13;2.80;;;1.00;;
2480;SDS011;57396;48.742;9.128;2023-11-21T04:38:39;2.40;;;1.20;;
2480;SDS011;57396;48.742;9.128;2023-11-21T04:41:05;1.60;;;1.20;;
2480;SDS011;57396;48.742;9.128;2023-11-21T04:43:31;1.73;;;1.50;;
2480;SDS011;57396;48.742;9.128;2023-11-21T04:45:56;3.43;;;1.40;;
2480;SDS011;57396;48.742;9.128;2023-11-21T04:48:22;2.90;;;1.40;;
2480;SDS011;57396;48.742;9.128;2023-11-21T04:50:47;1.83;;;0.90;;
2480;SDS011;57396;48.742;9.128;2023-11-21T04:53:13;3.10;;;0.87;;
2480;SDS011;57396;48.742;9.128;2023-11-21T04:55:40;1.10;;;0.87;;
2480;SDS011;57396;48.742;9.128;2023-11-21T04:58:05;3.57;;;0.87;;
2480;SDS011;57396;48.742;9.128;2023-11-21T05:00:31;1.40;;;0.80;;
2480;SDS011;57396;48.742;9.128;2023-11-21T05:02:56;2.60;;;1.03;;
2480;SDS011;57396;48.742;9.128;2023-11-21T05:05:22;1.13;;;0.97;;
2480;SDS011;57396;48.742;9.128;2023-11-21T05:07:47;3.27;;;1.00;;
2480;SDS011;57396;48.742;9.128;2023-11-21T05:10:14;1.60;;;0.80;;
2480;SDS011;57396;48.742;9.128;2023-11-21T05:12:40;1.47;;;0.70;;
2480;SDS011;57396;48.742;9.128;2023-11-21T05:15:07;1.57;;;0.80;;
2480;SDS011;57396;48.742;9.128;2023-11-21T05:17:36;1.37;;;0.83;;
2480;SDS011;57396;48.742;9.128;2023-11-21T05:20:03;2.80;;;0.70;;
2480;SDS011;57396;48.742;9.128;2023-11-21T05:22:29;1.97;;;1.00;;
2480;SDS011;57396;48.742;9.128;2023-11-21T05:24:55;2.13;;;1.00;;
2480;SDS011;57396;48.742;9.128;2023-11-21T05:27:20;0.90;;;0.73;;
2480;SDS011;57396;48.742;9.128;2023-11-21T05:29:46;2.40;;;0.80;;
2480;SDS011;57396;48.742;9.128;2023-11-21T05:32:11;1.80;;;0.97;;
2480;SDS011;57396;48.742;9.128;2023-11-21T05:34:37;1.83;;;1.10;;
2480;SDS011;57396;48.742;9.128;2023-11-21T05:37:02;2.40;;;0.80;;
2480;SDS011;57396;48.742;9.128;2023-11-21T05:39:28;2.33;;;1.20;;
2480;SDS011;57396;48.742;9.128;2023-11-21T05:41:53;2.20;;;0.70;;
2480;SDS011;57396;48.742;9.128;2023-11-21T05:44:19;1.10;;;1.00;;
2480;SDS011;57396;48.742;9.128;2023-11-21T05:46:44;1.00;;;0.80;;
2480;SDS011;57396;48.742;9.128;2023-11-21T05:49:10;2.60;;;0.80;;
2480;SDS011;57396;48.742;9.128;2023-11-21T05:51:36;4.30;;;1.37;;
2480;SDS011;57396;48.742;9.128;2023-11-21T05:54:02;2.43;;;1.10;;
2480;SDS011;57396;48.742;9.128;2023-11-21T05:56:27;2.80;;;1.37;;
2480;SDS011;57396;48.742;9.128;2023-11-21T05:58:53;2.50;;;1.50;;
2480;SDS011;57396;48.742;9.128;2023-11-21T06:01:18;2.43;;;1.40;;
2480;SDS011;57396;48.742;9.128;2023-11-21T06:03:44;1.90;;;1.50;;
2480;SDS011;57396;48.742;9.128;2023-11-21T06:06:10;1.73;;;1.60;;
2480;SDS011;57396;48.742;9.128;2023-11-21T06:08:36;7.53;;;1.77;;
2480;SDS011;57396;48.742;9.128;2023-11-21T06:11:01;1.47;;;1.30;;
2480;SDS011;57396;48.742;9.128;2023-11-21T06:13:27;7.03;;;4.50;;
2480;SDS011;57396;48.742;9.128;2023-11-21T06:15:52;13.00;;;11.00;;
2480;SDS011;57396;48.742;9.128;2023-11-21T06:18:18;17.40;;;15.20;;
2480;SDS011;57396;48.742;9.128;2023-11-21T06:20:45;11.80;;;9.77;;
2480;SDS011;57396;48.742;9.128;2023-11-21T06:23:11;6.43;;;5.83;;
2480;SDS011;57396;48.742;9.128;2023-11-21T06:25:36;6.00;;;4.73;;
2480;SDS011;57396;48.742;9.128;2023-11-21T06:28:02;2.27;;;2.07;;
2480;SDS011;57396;48.742;9.128;2023-11-21T06:30:27;1.73;;;1.50;;
2480;SDS011;57396;48.742;9.128;2023-11-21T06:32:56;1.47;;;1.37;;
2480;SDS011;57396;48.742;9.128;2023-11-21T06:35:22;2.60;;;2.10;;
2480;SDS011;57396;48.742;9.128;2023-11-21T06:37:47;1.77;;;1.67;;
2480;SDS011;57396;48.742;9.128;2023-11-21T06:40:13;5.40;;;2.17;;
2480;SDS011;57396;48.742;9.128;2023-11-21T06:42:40;7.53;;;2.60;;
2480;SDS011;57396;48.742;9.128;2023-11-21T06:45:06;3.70;;;2.80;;
2480;SDS011;57396;48.742;9.128;2023-11-21T06:47:32;9.80;;;4.50;;
2480;SDS011;57396;48.742;9.128;2023-11-21T06:49:58;12.03;;;5.00;;
2480;SDS011;57396;48.742;9.128;2023-11-21T06:52:23;8.37;;;4.43;;
2480;SDS011;57396;48.742;9.128;2023-11-21T06:54:49;7.10;;;4.80;;
2480;SDS011;57396;48.742;9.128;2023-11-21T06:57:15;5.80;;;5.03;;
2480;SDS011;57396;48.742;9.128;2023-11-21T06:59:40;6.60;;;5.60;;
2480;SDS011;57396;48.742;9.128;2023-11-21T07:02:06;8.37;;;4.97;;
2480;SDS011;57396;48.742;9.128;2023-11-21T07:04:32;7.23;;;4.37;;
2480;SDS011;57396;48.742;9.128;2023-11-21T07:06:58;4.40;;;3.23;;
2480;SDS011;57396;48.742;9.128;2023-11-21T07:09:24;3.40;;;3.10;;
2480;SDS011;57396;48.742;9.128;2023-11-21T07:11:51;4.37;;;2.53;;
2480;SDS011;57396;48.742;9.128;2023-11-21T07:14:17;5.17;;;2.50;;
2480;SDS011;57396;48.742;9.128;2023-11-21T07:16:44;4.00;;;3.23;;
2480;SDS011;57396;48.742;9.128;2023-11-21T07:19:10;8.37;;;3.67;;
2480;SDS011;57396;48.742;9.128;2023-11-21T07:21:37;3.43;;;3.13;;
2480;SDS011;57396;48.742;9.128;2023-11-21T07:24:03;2.70;;;2.40;;
2480;SDS011;57396;48.742;9.128;2023-11-21T07:26:29;1.80;;;1.60;;
2480;SDS011;57396;48.742;9.128;2023-11-21T07:28:55;2.17;;;1.50;;
2480;SDS011;57396;48.742;9.128;2023-11-21T07:31:21;4.13;;;1.37;;
2480;SDS011;57396;48.742;9.128;2023-11-21T07:33:47;3.30;;;1.57;;
2480;SDS011;57396;48.742;9.128;2023-11-21T07:36:15;4.90;;;1.60;;
2480;SDS011;57396;48.742;9.128;2023-11-21T07:38:43;5.03;;;1.60;;
2480;SDS011;57396;48.742;9.128;2023-11-21T07:41:08;1.60;;;1.50;;
2480;SDS011;57396;48.742;9.128;2023-11-21T07:43:35;10.90;;;1.90;;
2480;SDS011;57396;48.742;9.128;2023-11-21T07:46:01;2.17;;;1.50;;
2480;SDS011;57396;48.742;9.128;2023-11-21T07:48:28;1.70;;;1.13;;
2480;SDS011;57396;48.742;9.128;2023-11-21T07:50:54;2.37;;;1.00;;
2480;SDS011;57396;48.742;9.128;2023-11-21T07:53:20;1.67;;;1.43;;
2480;SDS011;57396;48.742;9.128;2023-11-21T07:55:45;2.20;;;2.00;;
2480;SDS011;57396;48.742;9.128;2023-11-21T07:58:12;3.40;;;1.73;;
2480;SDS011;57396;48.742;9.128;2023-11-21T08:00:38;3.23;;;2.33;;
2480;SDS011;57396;48.742;9.128;2023-11-21T08:03:04;2.60;;;2.10;;
2480;SDS011;57396;48.742;9.128;2023-11-21T08:05:30;3.57;;;2.47;;
2480;SDS011;57396;48.742;9.128;2023-11-21T08:07:56;7.10;;;4.47;;
2480;SDS011;57396;48.742;9.128;2023-11-21T08:10:22;17.60;;;10.10;;
2480;SDS011;57396;48.742;9.128;2023-11-21T08:12:47;11.10;;;7.23;;
2480;SDS011;57396;48.742;9.128;2023-11-21T08:15:13;4.60;;;3.10;;
2480;SDS011;57396;48.742;9.128;2023-11-21T08:17:39;3.07;;;2.30;;
2480;SDS011;57396;48.742;9.128;2023-11-21T08:20:05;3.93;;;2.93;;
2480;SDS011;57396;48.742;9.128;2023-11-21T08:22:31;6.80;;;2.50;;
2480;SDS011;57396;48.742;9.128;2023-11-21T08:24:57;2.57;;;2.37;;
2480;SDS011;57396;48.742;9.128;2023-11-21T08:27:23;3.70;;;2.57;;
2480;SDS011;57396;48.742;9.128;2023-11-21T08:29:48;3.93;;;2.43;;
2480;SDS011;57396;48.742;9.128;2023-11-21T08:32:13;5.00;;;2.20;;
2480;SDS011;57396;48.742;9.128;2023-11-21T08:34:40;3.57;;;2.60;;
2480;SDS011;57396;48.742;9.128;2023-11-21T08:37:08;4.40;;;3.00;;
2480;SDS011;57396;48.742;9.128;2023-11-21T08:39:33;2.53;;;2.00;;
2480;SDS011;57396;48.742;9.128;2023-11-21T08:41:59;5.20;;;1.70;;
2480;SDS011;57396;48.742;9.128;2023-11-21T08:44:24;2.73;;;1.80;;
2480;SDS011;57396;48.742;9.128;2023-11-21T08:46:50;2.70;;;1.93;;
2480;SDS011;57396;48.742;9.128;2023-11-21T08:49:15;8.60;;;2.60;;
2480;SDS011;57396;48.742;9.128;2023-11-21T08:51:41;3.77;;;3.27;;
2480;SDS011;57396;48.742;9.128;2023-11-21T08:54:06;3.43;;;1.87;;
2480;SDS011;57396;48.742;9.128;2023-11-21T08:56:36;2.80;;;1.77;;
2480;SDS011;57396;48.742;9.128;2023-11-21T08:59:01;26.07;;;18.97;;
2480;SDS011;57396;48.742;9.128;2023-11-21T09:01:31;36.03;;;25.83;;
2480;SDS011;57396;48.742;9.128;2023-11-21T09:03:57;6.00;;;5.40;;
2480;SDS011;57396;48.742;9.128;2023-11-21T09:06:23;7.27;;;5.80;;
2480;SDS011;57396;48.742;9.128;2023-11-21T09:08:49;7.40;;;5.00;;
2480;SDS011;57396;48.742;9.128;2023-11-21T09:11:14;7.90;;;6.17;;
2480;SDS011;57396;48.742;9.128;2023-11-21T09:13:40;2.37;;;2.17;;
2480;SDS011;57396;48.742;9.128;2023-11-21T09:16:05;3.63;;;1.87;;
2480;SDS011;57396;48.742;9.128;2023-11-21T09:18:31;1.80;;;1.60;;
2480;SDS011;57396;48.742;9.128;2023-11-21T09:20:56;2.10;;;1.90;;
2480;SDS011;57396;48.742;9.128;2023-11-21T09:23:22;5.63;;;1.83;;
2480;SDS011;57396;48.742;9.128;2023-11-21T09:25:48;1.50;;;1.27;;
2480;SDS011;57396;48.742;9.128;2023-11-21T09:28:15;1.57;;;1.10;;
2480;SDS011;57396;48.742;9.128;2023-11-21T09:30:42;3.43;;;1.83;;
2480;SDS011;57396;48.742;9.128;2023-11-21T09:33:08;4.90;;;1.60;;
2480;SDS011;57396;48.742;9.128;2023-11-21T09:35:37;2.17;;;1.20;;
2480;SDS011;57396;48.742;9.128;2023-11-21T09:38:03;3.07;;;1.80;;
2480;SDS011;57396;48.742;9.128;2023-11-21T09:40:30;3.30;;;1.43;;
2480;SDS011;57396;48.742;9.128;2023-11-21T09:42:57;2.50;;;2.10;;
2480;SDS011;57396;48.742;9.128;2023-11-21T09:45:32;1.50;;;1.10;;
2480;SDS011;57396;48.742;9.128;2023-11-21T09:48:00;2.63;;;1.40;;
2480;SDS011;57396;48.742;9.128;2023-11-21T09:50:26;1.60;;;1.50;;
2480;SDS011;57396;48.742;9.128;2023-11-21T09:52:55;1.73;;;1.60;;
2480;SDS011;57396;48.742;9.128;2023-11-21T09:55:44;1.67;;;1.00;;
2480;SDS011;57396;48.742;9.128;2023-11-21T09:58:11;2.53;;;1.30;;
2480;SDS011;57396;48.742;9.128;2023-11-21T10:00:40;1.10;;;1.00;;
2480;SDS011;57396;48.742;9.128;2023-11-21T10:03:07;1.70;;;1.50;;
2480;SDS011;57396;48.742;9.128;2023-11-21T10:05:33;1.23;;;1.10;;
2480;SDS011;57396;48.742;9.128;2023-11-21T10:07:59;1.83;;;1.60;;
2480;SDS011;57396;48.742;9.128;2023-11-21T10:10:25;2.90;;;1.67;;
2480;SDS011;57396;48.742;9.128;2023-11-21T10:12:51;2.80;;;1.60;;
2480;SDS011;57396;48.742;9.128;2023-11-21T10:15:22;1.90;;;1.50;;
2480;SDS011;57396;48.742;9.128;2023-11-21T10:17:51;5.37;;;1.67;;
2480;SDS011;57396;48.742;9.128;2023-11-21T10:20:19;1.77;;;1.40;;
2480;SDS011;57396;48.742;9.128;2023-11-21T10:22:45;1.83;;;1.60;;
2480;SDS011;57396;48.742;9.128;2023-11-21T10:25:11;2.00;;;1.50;;
2480;SDS011;57396;48.742;9.128;2023-11-21T10:27:39;2.53;;;2.10;;
2480;SDS011;57396;48.742;9.128;2023-11-21T10:30:06;2.90;;;1.80;;
2480;SDS011;57396;48.742;9.128;2023-11-21T10:32:33;2.00;;;1.80;;
2480;SDS011;57396;48.742;9.128;2023-11-21T10:34:59;3.00;;;1.63;;
2480;SDS011;57396;48.742;9.128;2023-11-21T10:37:25;2.10;;;1.43;;
2480;SDS011;57396;48.742;9.128;2023-11-21T10:39:57;1.60;;;1.20;;
2480;SDS011;57396;48.742;9.128;2023-11-21T10:42:23;2.60;;;1.50;;
2480;SDS011;57396;48.742;9.128;2023-11-21T10:44:49;2.07;;;1.37;;
2480;SDS011;57396;48.742;9.128;2023-11-21T10:47:15;1.67;;;1.20;;
2480;SDS011;57396;48.742;9.128;2023-11-21T10:49:41;2.43;;;1.40;;
2480;SDS011;57396;48.742;9.128;2023-11-21T10:52:07;2.40;;;1.30;;
2480;SDS011;57396;48.742;9.128;2023-11-21T10:54:33;1.50;;;1.30;;
2480;SDS011;57396;48.742;9.128;2023-11-21T10:57:01;2.00;;;1.53;;
2480;SDS011;57396;48.742;9.128;2023-11-21T10:59:28;1.73;;;1.30;;
2480;SDS011;57396;48.742;9.128;2023-11-21T11:01:57;3.63;;;1.73;;
2480;SDS011;57396;48.742;9.128;2023-11-21T11:04:23;2.97;;;2.67;;
2480;SDS011;57396;48.742;9.128;2023-11-21T11:07:08;4.90;;;1.70;;
2480;SDS011;57396;48.742;9.128;2023-11-21T11:09:37;1.93;;;1.30;;
2480;SDS011;57396;48.742;9.128;2023-11-21T11:12:02;2.50;;;1.73;;
2480;SDS011;57396;48.742;9.128;2023-11-21T11:14:29;1.90;;;1.30;;
2480;SDS011;57396;48.742;9.128;2023-11-21T11:16:55;1.10;;;0.90;;
2480;SDS011;57396;48.742;9.128;2023-11-21T11:19:21;1.37;;;1.17;;
2480;SDS011;57396;48.742;9.128;2023-11-21T11:21:53;1.80;;;1.07;;
2480;SDS011;57396;48.742;9.128;2023-11-21T11:30:33;13.10;;;10.77;;
2480;SDS011;57396;48.742;9.128;2023-11-21T11:33:11;3.00;;;2.70;;
2480;SDS011;57396;48.742;9.128;2023-11-21T11:35:57;1.40;;;1.30;;
2480;SDS011;57396;48.742;9.128;2023-11-21T11:38:30;0.93;;;0.80;;
2480;SDS011;57396;48.742;9.128;2023-11-21T11:40:57;1.50;;;1.10;;
2480;SDS011;57396;48.742;9.128;2023-11-21T11:43:27;1.50;;;1.40;;
2480;SDS011;57396;48.742;9.128;2023-11-21T11:45:57;1.30;;;1.00;;
2480;SDS011;57396;48.742;9.128;2023-11-21T11:48:24;1.03;;;0.90;;
2480;SDS011;57396;48.742;9.128;2023-11-21T11:53:40;2.00;;;1.07;;
2480;SDS011;57396;48.742;9.128;2023-11-21T11:58:57;1.63;;;1.20;;
2480;SDS011;57396;48.742;9.128;2023-11-21T12:01:24;1.40;;;1.13;;
2480;SDS011;57396;48.742;9.128;2023-11-21T12:06:59;2.10;;;1.00;;
2480;SDS011;57396;48.742;9.128;2023-11-21T12:09:27;4.13;;;1.30;;
2480;SDS011;57396;48.742;9.128;2023-11-21T12:11:54;1.33;;;1.10;;
2480;SDS011;57396;48.742;9.128;2023-11-21T12:14:21;1.10;;;1.00;;
2480;SDS011;57396;48.742;9.128;2023-11-21T12:16:48;1.00;;;0.90;;
2480;SDS011;57396;48.742;9.128;2023-11-21T12:19:13;1.57;;;1.00;;
2480;SDS011;57396;48.742;9.128;2023-11-21T12:21:39;1.53;;;1.10;;
2480;SDS011;57396;48.742;9.128;2023-11-21T12:24:09;1.20;;;1.07;;
2480;SDS011;57396;48.742;9.128;2023-11-21T12:26:35;2.40;;;0.90;;
2480;SDS011;57396;48.742;9.128;2023-11-21T12:29:01;1.10;;;1.00;;
2480;SDS011;57396;48.742;9.128;2023-11-21T12:31:29;1.40;;;1.30;;
2480;SDS011;57396;48.742;9.128;2023-11-21T12:33:55;1.50;;;1.40;;
2480;SDS011;57396;48.742;9.128;2023-11-21T12:36:21;1.30;;;1.20;;
2480;SDS011;57396;48.742;9.128;2023-11-21T12:38:47;1.60;;;1.37;;
2480;SDS011;57396;48.742;9.128;2023-11-21T12:41:12;1.30;;;1.20;;
2480;SDS011;57396;48.742;9.128;2023-11-21T12:43:38;1.90;;;1.80;;
2480;SDS011;57396;48.742;9.128;2023-11-21T12:46:08;1.80;;;1.70;;
2480;SDS011;57396;48.742;9.128;2023-11-21T12:48:38;2.03;;;1.47;;
2480;SDS011;57396;48.742;9.128;2023-11-21T12:51:07;1.60;;;1.50;;
2480;SDS011;57396;48.742;9.128;2023-11-21T12:53:33;2.60;;;1.30;;
2480;SDS011;57396;48.742;9.128;2023-11-21T12:56:06;1.53;;;1.43;;
2480;SDS011;57396;48.742;9.128;2023-11-21T12:58:34;1.87;;;1.43;;
2480;SDS011;57396;48.742;9.128;2023-11-21T13:01:04;1.50;;;1.20;;
2480;SDS011;57396;48.742;9.128;2023-11-21T13:03:30;0.90;;;0.80;;
2480;SDS011;57396;48.742;9.128;2023-11-21T13:05:57;1.10;;;1.00;;
2480;SDS011;57396;48.742;9.128;2023-11-21T13:08:25;1.83;;;1.20;;
2480;SDS011;57396;48.742;9.128;2023-11-21T13:10:55;1.13;;;1.03;;
2480;SDS011;57396;48.742;9.128;2023-11-21T13:13:21;1.53;;;1.43;;
2480;SDS011;57396;48.742;9.128;2023-11-21T13:15:47;4.97;;;1.27;;
2480;SDS011;57396;48.742;9.128;2023-11-21T13:18:13;1.60;;;1.40;;
2480;SDS011;57396;48.742;9.128;2023-11-21T13:20:40;1.37;;;1.27;;
2480;SDS011;57396;48.742;9.128;2023-11-21T13:23:09;1.30;;;1.20;;
2480;SDS011;57396;48.742;9.128;2023-11-21T13:25:40;1.57;;;1.47;;
2480;SDS011;57396;48.742;9.128;2023-11-21T13:28:10;2.10;;;1.50;;
2480;SDS011;57396;48.742;9.128;2023-11-21T13:30:35;1.90;;;1.30;;
2480;SDS011;57396;48.742;9.128;2023-11-21T13:33:01;1.40;;;1.20;;
2480;SDS011;57396;48.742;9.128;2023-11-21T13:35:30;3.77;;;1.37;;
2480;SDS011;57396;48.742;9.128;2023-11-21T13:38:02;1.50;;;1.33;;
2480;SDS011;57396;48.742;9.128;2023-11-21T13:40:30;1.10;;;0.93;;
2480;SDS011;57396;48.742;9.128;2023-11-21T13:42:55;3.73;;;0.90;;
2480;SDS011;57396;48.742;9.128;2023-11-21T13:45:24;1.23;;;1.13;;
2480;SDS011;57396;48.742;9.128;2023-11-21T13:47:53;1.10;;;1.00;;
2480;SDS011;57396;48.742;9.128;2023-11-21T13:50:26;3.87;;;1.43;;
2480;SDS011;57396;48.742;9.128;2023-11-21T13:52:58;1.57;;;1.10;;
2480;SDS011;57396;48.742;9.128;2023-11-21T13:55:44;1.17;;;0.73;;
2480;SDS011;57396;48.742;9.128;2023-11-21T13:58:10;1.30;;;0.80;;
2480;SDS011;57396;48.742;9.128;2023-11-21T14:00:41;1.20;;;0.80;;
2480;SDS011;57396;48.742;9.128;2023-11-21T14:03:09;2.70;;;1.00;;
2480;SDS011;57396;48.742;9.128;2023-11-21T14:05:43;1.00;;;0.90;;
2480;SDS011;57396;48.742;9.128;2023-11-21T14:08:09;1.80;;;0.97;;
2480;SDS011;57396;48.742;9.128;2023-11-21T14:10:37;1.47;;;1.00;;
2480;SDS011;57396;48.742;9.128;2023-11-21T14:13:08;2.30;;;1.27;;
2480;SDS011;57396;48.742;9.128;2023-11-21T14:15:36;1.83;;;1.50;;
2480;SDS011;57396;48.742;9.128;2023-11-21T14:18:08;1.60;;;1.37;;
2480;SDS011;57396;48.742;9.128;2023-11-21T14:20:38;2.03;;;1.47;;
2480;SDS011;57396;48.742;9.128;2023-11-21T14:23:04;1.57;;;1.43;;
2480;SDS011;57396;48.742;9.128;2023-11-21T14:25:34;1.83;;;1.73;;
2480;SDS011;57396;48.742;9.128;2023-11-21T14:28:02;3.93;;;2.20;;
2480;SDS011;57396;48.742;9.128;2023-11-21T14:30:31;2.70;;;2.07;;
2480;SDS011;57396;48.742;9.128;2023-11-21T14:33:00;3.20;;;2.40;;
2480;SDS011;57396;48.742;9.128;2023-11-21T14:35:26;4.60;;;2.80;;
2480;SDS011;57396;48.742;9.128;2023-11-21T14:37:52;2.23;;;2.13;;
2480;SDS011;57396;48.742;9.128;2023-11-21T14:40:17;2.30;;;2.00;;
2480;SDS011;57396;48.742;9.128;2023-11-21T14:42:46;2.00;;;1.90;;
2480;SDS011;57396;48.742;9.128;2023-11-21T14:45:13;3.00;;;1.77;;
2480;SDS011;57396;48.742;9.128;2023-11-21T14:47:41;2.13;;;1.63;;
2480;SDS011;57396;48.742;9.128;2023-11-21T14:50:11;1.90;;;1.77;;
2480;SDS011;57396;48.742;9.128;2023-11-21T14:52:55;2.47;;;2.00;;
2480;SDS011;57396;48.742;9.128;2023-11-21T14:55:24;2.90;;;2.17;;
2480;SDS011;57396;48.742;9.128;2023-11-21T14:57:57;2.07;;;1.87;;
2480;SDS011;57396;48.742;9.128;2023-11-21T15:00:27;3.20;;;1.97;;
2480;SDS011;57396;48.742;9.128;2023-11-21T15:03:02;3.10;;;2.00;;
2480;SDS011;57396;48.742;9.128;2023-11-21T15:05:28;6.97;;;2.73;;
2480;SDS011;57396;48.742;9.128;2023-11-21T15:07:54;4.23;;;3.83;;
2480;SDS011;57396;48.742;9.128;2023-11-21T15:10:22;5.17;;;3.37;;
2480;SDS011;57396;48.742;9.128;2023-11-21T15:13:03;2.50;;;2.30;;